Time;durP1;ratioP1;P1;durP2;ratioP2;P2;SDS_P1;SDS_P2;PMS_P1;PMS_P2;Temp;Humidity;BMP_temperature;BMP_pressure;BME280_temperature;BME280_humidity;BME280_pressure;Samples;Min_cycle;Max_cycle;Signal;HPM_P1;HPM_P2
2023/05/16 00:02:17;;;;;;;6.70;2.17;;;6.90;99.90;;;;;;5075976;28;20150;-88
2023/05/16 00:04:43;;;;;;;3.95;2.17;;;7.00;99.90;;;;;;5065197;28;20043;-87
2023/05/16 00:07:08;;;;;;;3.95;2.10;;;6.90;99.90;;;;;;5076436;28;20029;-87
2023/05/16 00:09:34;;;;;;;6.00;2.70;;;6.90;99.90;;;;;;5077908;28;20086;-88
2023/05/16 00:12:00;;;;;;;6.10;2.40;;;6.80;99.90;;;;;;5092420;28;20113;-87
2023/05/16 00:14:26;;;;;;;4.15;2.10;;;6.80;99.90;;;;;;5085899;28;20101;-87
2023/05/16 00:16:53;;;;;;;3.60;2.03;;;6.70;99.90;;;;;;5066154;28;20032;-87
2023/05/16 00:19:19;;;;;;;5.10;2.30;;;6.70;99.90;;;;;;5064487;28;20097;-87
2023/05/16 00:21:45;;;;;;;4.40;2.38;;;6.60;99.90;;;;;;5079625;28;20023;-88
2023/05/16 00:24:10;;;;;;;6.65;2.28;;;6.60;99.90;;;;;;5072448;28;20037;-88
2023/05/16 00:26:36;;;;;;;6.22;2.17;;;6.70;99.90;;;;;;5073805;28;20118;-88
2023/05/16 00:29:02;;;;;;;4.97;2.33;;;6.70;99.90;;;;;;5067084;28;20036;-88
2023/05/16 00:31:27;;;;;;;7.88;2.42;;;6.70;99.90;;;;;;5063553;28;20480;-88
2023/05/16 00:33:53;;;;;;;5.10;1.88;;;6.70;99.90;;;;;;5065314;28;20094;-87
2023/05/16 00:36:20;;;;;;;6.18;2.05;;;6.70;99.90;;;;;;5074440;28;20022;-89
2023/05/16 00:38:46;;;;;;;6.65;2.00;;;6.80;99.90;;;;;;5066836;28;20033;-87
2023/05/16 00:41:12;;;;;;;6.38;2.40;;;6.80;99.90;;;;;;5065468;28;20028;-89
2023/05/16 00:43:38;;;;;;;9.48;2.40;;;6.80;99.90;;;;;;5072536;28;20024;-88
2023/05/16 00:46:04;;;;;;;2.67;1.70;;;6.80;99.90;;;;;;5075918;28;20028;-87
2023/05/16 00:48:30;;;;;;;5.80;2.10;;;6.90;99.90;;;;;;5078724;28;20187;-88
2023/05/16 00:50:55;;;;;;;7.80;2.20;;;6.90;99.90;;;;;;5074713;28;20165;-88
2023/05/16 00:53:22;;;;;;;7.15;2.25;;;6.80;99.90;;;;;;5068587;28;20037;-87
2023/05/16 00:55:48;;;;;;;5.88;2.40;;;6.80;99.90;;;;;;5065937;28;20020;-87
2023/05/16 00:58:15;;;;;;;5.22;2.30;;;6.90;99.90;;;;;;5102672;28;20039;-88
2023/05/16 01:00:41;;;;;;;8.75;3.50;;;6.90;99.90;;;;;;5089310;28;20039;-87
2023/05/16 01:03:07;;;;;;;4.88;2.20;;;7.00;99.90;;;;;;5086043;28;20524;-87
2023/05/16 01:05:33;;;;;;;3.95;2.28;;;7.10;99.90;;;;;;5065051;28;20027;-88
2023/05/16 01:07:58;;;;;;;6.00;2.10;;;7.10;99.90;;;;;;5070787;28;20047;-87
2023/05/16 01:10:48;;;;;;;5.93;1.98;;;7.10;99.90;;;;;;5074153;28;20537;-87
2023/05/16 01:13:50;;;;;;;4.88;2.53;;;7.10;99.90;;;;;;5087305;28;20096;-87
2023/05/16 01:16:21;;;;;;;;;;;7.10;99.90;;;;;;5055379;28;20037;-87
2023/05/16 01:19:11;;;;;;;5.70;2.50;;;7.00;99.90;;;;;;5073101;28;19912;-87
2023/05/16 01:22:05;;;;;;;7.57;3.00;;;6.90;99.90;;;;;;5079084;28;20134;-87
2023/05/16 01:24:47;;;;;;;10.20;2.80;;;6.90;99.90;;;;;;5062880;28;20089;-87
2023/05/16 01:27:13;;;;;;;7.03;2.55;;;6.80;99.90;;;;;;5083899;28;20350;-87
2023/05/16 01:29:39;;;;;;;7.80;2.63;;;6.80;99.90;;;;;;5085693;28;20055;-87
2023/05/16 01:32:05;;;;;;;5.82;2.53;;;6.80;99.90;;;;;;5078929;28;20052;-88
2023/05/16 01:34:30;;;;;;;5.60;2.80;;;6.70;99.90;;;;;;5068988;28;20250;-88
2023/05/16 01:37:18;;;;;;;4.72;2.40;;;6.70;99.90;;;;;;5078493;28;20024;-88
2023/05/16 01:39:54;;;;;;;5.20;2.42;;;6.70;99.90;;;;;;5082592;28;20141;-87
2023/05/16 01:42:26;;;;;;;8.90;2.60;;;6.60;99.90;;;;;;5084423;28;20028;-88
2023/05/16 01:44:51;;;;;;;4.25;2.17;;;6.50;99.90;;;;;;5085102;28;20059;-88
2023/05/16 01:47:19;;;;;;;5.97;2.83;;;6.50;99.90;;;;;;5077161;28;20407;-87
2023/05/16 01:50:08;;;;;;;6.57;2.50;;;6.50;99.90;;;;;;5069668;28;20032;-87
2023/05/16 01:52:39;;;;;;;4.45;2.67;;;6.40;99.90;;;;;;5091525;28;20028;-86
2023/05/16 01:55:11;;;;;;;5.20;2.83;;;6.40;99.90;;;;;;5077094;28;20031;-86
2023/05/16 01:57:38;;;;;;;7.22;3.13;;;6.40;99.90;;;;;;5073626;28;20285;-88
2023/05/16 02:00:04;;;;;;;8.75;3.03;;;6.40;99.90;;;;;;5049683;28;20040;-88
2023/05/16 02:02:30;;;;;;;5.88;2.80;;;6.40;99.90;;;;;;5083184;22;20427;-88
2023/05/16 02:04:56;;;;;;;5.10;2.50;;;6.30;99.90;;;;;;5083783;28;20021;-87
2023/05/16 02:07:22;;;;;;;4.25;2.63;;;6.40;99.90;;;;;;5075262;22;20146;-87
2023/05/16 02:09:47;;;;;;;5.45;2.95;;;6.30;99.90;;;;;;5044986;28;20082;-88
2023/05/16 02:12:13;;;;;;;6.25;2.55;;;6.30;99.90;;;;;;5035864;28;20108;-88
2023/05/16 02:14:38;;;;;;;6.85;2.95;;;6.30;99.90;;;;;;5060095;28;20118;-87
2023/05/16 02:17:04;;;;;;;4.75;2.60;;;6.30;99.90;;;;;;5031693;28;20032;-88
2023/05/16 02:19:30;;;;;;;5.63;2.72;;;6.30;99.90;;;;;;5047576;28;20426;-87
2023/05/16 02:21:56;;;;;;;6.82;3.00;;;6.30;99.90;;;;;;5058151;28;20043;-87
2023/05/16 02:24:21;;;;;;;8.63;2.67;;;6.20;99.90;;;;;;5048296;28;20066;-87
2023/05/16 02:26:47;;;;;;;6.95;2.70;;;6.20;99.90;;;;;;5047562;28;20378;-89
2023/05/16 02:29:14;;;;;;;6.25;3.10;;;6.00;99.90;;;;;;5019136;28;20522;-88
2023/05/16 02:31:41;;;;;;;6.53;2.65;;;6.00;99.90;;;;;;5044636;28;20552;-87
2023/05/16 02:34:07;;;;;;;6.35;2.70;;;6.00;99.90;;;;;;5042885;28;20068;-87
2023/05/16 02:36:34;;;;;;;7.03;2.67;;;6.00;99.90;;;;;;5046333;28;20492;-87
2023/05/16 02:39:00;;;;;;;4.60;2.50;;;5.90;99.90;;;;;;5018030;28;20036;-87
2023/05/16 02:41:26;;;;;;;4.90;2.88;;;5.90;99.90;;;;;;5016108;28;20025;-88
2023/05/16 02:43:52;;;;;;;8.32;2.95;;;5.90;99.90;;;;;;5024176;28;20608;-89
2023/05/16 02:46:26;;;;;;;4.15;2.70;;;5.90;99.90;;;;;;5049886;28;20036;-87
2023/05/16 02:48:53;;;;;;;5.72;2.60;;;5.90;99.90;;;;;;5043119;28;20062;-87
2023/05/16 02:51:24;;;;;;;7.40;2.80;;;5.90;99.90;;;;;;5039469;28;20082;-87
2023/05/16 02:53:50;;;;;;;5.53;3.17;;;5.80;99.90;;;;;;5026068;28;20284;-87
2023/05/16 02:56:16;;;;;;;8.65;3.13;;;5.80;99.90;;;;;;5013649;28;20033;-85
2023/05/16 02:58:42;;;;;;;9.45;3.80;;;5.80;99.90;;;;;;5012358;28;20060;-89
2023/05/16 03:01:08;;;;;;;9.27;4.43;;;5.80;99.90;;;;;;5027282;28;20027;-87
2023/05/16 03:03:35;;;;;;;12.15;5.78;;;5.80;99.90;;;;;;5054935;28;20033;-87
2023/05/16 03:06:01;;;;;;;12.40;6.70;;;5.80;99.90;;;;;;5028302;28;20082;-87
2023/05/16 03:08:27;;;;;;;13.48;6.72;;;5.80;99.90;;;;;;5050455;28;20557;-88
2023/05/16 03:10:53;;;;;;;12.50;6.18;;;5.80;99.90;;;;;;5070305;28;20103;-86
2023/05/16 03:13:18;;;;;;;15.68;6.60;;;5.90;99.90;;;;;;5088789;28;20034;-86
2023/05/16 03:15:45;;;;;;;10.05;6.03;;;5.90;99.90;;;;;;5049026;28;20040;-88
2023/05/16 03:18:10;;;;;;;11.10;5.05;;;5.90;99.90;;;;;;5040991;28;20025;-86
2023/05/16 03:20:37;;;;;;;13.25;6.85;;;6.00;99.90;;;;;;5058064;28;20369;-87
2023/05/16 03:23:06;;;;;;;10.68;6.55;;;6.00;99.90;;;;;;5034074;28;20393;-87
2023/05/16 03:25:32;;;;;;;10.18;7.00;;;6.00;99.90;;;;;;5056076;28;20017;-87
2023/05/16 03:27:58;;;;;;;10.80;6.75;;;6.00;99.90;;;;;;5083523;28;20085;-87
2023/05/16 03:30:24;;;;;;;9.93;6.47;;;6.00;99.90;;;;;;5070666;28;20028;-86
2023/05/16 03:32:50;;;;;;;12.20;7.40;;;6.00;99.90;;;;;;5054727;28;20037;-87
2023/05/16 03:35:16;;;;;;;9.45;6.90;;;6.00;99.90;;;;;;5036891;28;20036;-87
2023/05/16 03:37:42;;;;;;;17.02;7.75;;;6.00;99.90;;;;;;5047311;28;20387;-87
2023/05/16 03:40:08;;;;;;;15.05;7.65;;;6.00;99.90;;;;;;5048927;28;20031;-88
2023/05/16 03:42:34;;;;;;;14.00;8.02;;;6.00;99.90;;;;;;5058922;28;20060;-87
2023/05/16 03:44:59;;;;;;;13.55;10.05;;;6.00;99.90;;;;;;5065826;28;20060;-87
2023/05/16 03:47:25;;;;;;;15.65;10.23;;;6.10;99.90;;;;;;5065591;28;20418;-86
2023/05/16 03:49:51;;;;;;;15.15;11.10;;;6.00;99.90;;;;;;5067323;28;20080;-87
2023/05/16 03:52:17;;;;;;;21.92;11.35;;;6.00;99.90;;;;;;5066658;28;20093;-87
2023/05/16 03:54:43;;;;;;;13.07;8.98;;;6.00;99.90;;;;;;5048305;28;20028;-86
2023/05/16 03:57:08;;;;;;;12.27;7.03;;;6.00;99.90;;;;;;5066952;28;20036;-86
2023/05/16 03:59:35;;;;;;;13.35;8.27;;;6.00;99.90;;;;;;5048985;28;20029;-87
2023/05/16 04:02:00;;;;;;;12.50;7.63;;;6.00;99.90;;;;;;5062361;28;20396;-87
2023/05/16 04:04:26;;;;;;;13.95;7.85;;;5.90;99.90;;;;;;5065995;28;20017;-87
2023/05/16 04:06:51;;;;;;;8.77;6.72;;;5.90;99.90;;;;;;5054316;28;20470;-86
2023/05/16 04:09:17;;;;;;;11.75;6.63;;;5.80;99.90;;;;;;5037791;28;20039;-87
2023/05/16 04:11:43;;;;;;;11.02;6.43;;;5.80;99.90;;;;;;5054362;28;20017;-86
2023/05/16 04:14:08;;;;;;;9.93;5.53;;;5.80;99.90;;;;;;5064697;28;20088;-87
2023/05/16 04:16:34;;;;;;;11.00;5.97;;;5.80;99.90;;;;;;5042860;28;20083;-86
2023/05/16 04:19:00;;;;;;;9.43;5.38;;;5.90;99.90;;;;;;5054041;28;20059;-87
2023/05/16 04:21:25;;;;;;;11.50;5.93;;;5.90;99.90;;;;;;5071145;28;20028;-87
2023/05/16 04:23:51;;;;;;;12.07;6.05;;;5.90;99.90;;;;;;5062564;28;20081;-87
2023/05/16 04:26:16;;;;;;;11.38;5.60;;;5.90;99.90;;;;;;5077807;28;20081;-86
2023/05/16 04:28:42;;;;;;;7.57;4.65;;;5.90;99.90;;;;;;5073747;28;20051;-87
2023/05/16 04:31:08;;;;;;;6.72;5.53;;;6.00;99.90;;;;;;5060064;22;20494;-87
2023/05/16 04:33:33;;;;;;;6.85;4.55;;;6.00;99.90;;;;;;5065171;28;20028;-86
2023/05/16 04:35:59;;;;;;;7.10;4.15;;;6.00;99.90;;;;;;5068952;28;20038;-86
2023/05/16 04:38:25;;;;;;;10.15;3.85;;;6.10;99.90;;;;;;5094888;28;20583;-86
2023/05/16 04:40:51;;;;;;;5.80;3.55;;;6.10;99.90;;;;;;5058218;28;20032;-87
2023/05/16 04:43:17;;;;;;;10.68;3.70;;;6.10;99.90;;;;;;5065918;28;20027;-87
2023/05/16 04:45:43;;;;;;;6.97;3.80;;;6.10;99.90;;;;;;5068018;28;20032;-87
2023/05/16 04:48:10;;;;;;;6.30;3.50;;;6.20;99.90;;;;;;5049269;28;20089;-86
2023/05/16 04:50:36;;;;;;;7.80;3.42;;;6.20;99.90;;;;;;5071594;28;20055;-87
2023/05/16 04:53:01;;;;;;;4.20;2.75;;;6.20;99.90;;;;;;5066207;28;20060;-86
2023/05/16 04:55:27;;;;;;;5.15;2.90;;;6.20;99.90;;;;;;5060492;28;20031;-86
2023/05/16 04:57:52;;;;;;;7.72;3.42;;;6.20;99.90;;;;;;5066252;28;20097;-87
2023/05/16 05:00:18;;;;;;;8.02;3.63;;;6.30;99.90;;;;;;5081058;28;20028;-87
2023/05/16 05:02:44;;;;;;;5.47;3.05;;;6.20;99.90;;;;;;5072557;28;20495;-87
2023/05/16 05:05:10;;;;;;;5.20;3.05;;;6.30;99.90;;;;;;5083910;28;20559;-88
2023/05/16 05:07:35;;;;;;;10.50;4.00;;;6.30;99.90;;;;;;5080268;28;20040;-87
2023/05/16 05:10:01;;;;;;;5.97;3.15;;;6.30;99.90;;;;;;5051114;28;20032;-86
2023/05/16 05:12:27;;;;;;;5.03;3.55;;;6.40;99.90;;;;;;5089226;28;20043;-87
2023/05/16 05:14:53;;;;;;;7.93;3.58;;;6.50;99.90;;;;;;5071665;28;20028;-87
2023/05/16 05:17:20;;;;;;;5.60;4.10;;;6.60;99.90;;;;;;5098782;28;20104;-87
2023/05/16 05:19:47;;;;;;;7.00;3.80;;;6.60;99.90;;;;;;5075612;28;20128;-86
2023/05/16 05:22:12;;;;;;;7.35;3.20;;;6.70;99.90;;;;;;5054595;28;20098;-86
2023/05/16 05:24:38;;;;;;;6.50;3.38;;;6.80;99.90;;;;;;5062706;28;20028;-86
2023/05/16 05:27:04;;;;;;;6.35;3.42;;;6.80;99.90;;;;;;5073935;28;20043;-87
2023/05/16 05:29:29;;;;;;;7.03;3.25;;;6.90;99.90;;;;;;5057687;28;20036;-87
2023/05/16 05:31:55;;;;;;;8.32;3.58;;;6.90;99.90;;;;;;5069770;28;20086;-87
2023/05/16 05:34:21;;;;;;;7.72;3.47;;;7.10;99.90;;;;;;5096848;28;20564;-86
2023/05/16 05:36:46;;;;;;;6.18;3.00;;;7.10;99.90;;;;;;5066587;28;20070;-87
2023/05/16 05:39:12;;;;;;;8.50;3.10;;;7.30;99.90;;;;;;5076245;28;20024;-86
2023/05/16 05:41:38;;;;;;;6.35;3.35;;;7.40;99.90;;;;;;5073624;28;20025;-86
2023/05/16 05:44:04;;;;;;;6.53;3.00;;;7.50;99.90;;;;;;5075951;28;20027;-86
2023/05/16 05:46:31;;;;;;;4.88;3.70;;;7.60;99.90;;;;;;5065013;28;20040;-87
2023/05/16 05:48:57;;;;;;;5.47;3.72;;;7.60;99.90;;;;;;5047320;28;20040;-86
2023/05/16 05:51:23;;;;;;;6.05;2.90;;;7.80;99.90;;;;;;5080739;28;20622;-86
2023/05/16 05:53:48;;;;;;;7.00;3.22;;;7.80;99.90;;;;;;5063456;28;20388;-87
2023/05/16 05:56:14;;;;;;;6.25;3.00;;;8.00;99.90;;;;;;5058429;28;20031;-86
2023/05/16 05:58:40;;;;;;;7.75;3.08;;;8.10;99.90;;;;;;5085590;28;20460;-87
2023/05/16 06:01:06;;;;;;;8.50;3.22;;;8.10;99.90;;;;;;4711770;28;9999921;-87
2023/05/16 06:03:32;;;;;;;8.25;3.00;;;8.30;99.90;;;;;;5061873;28;20028;-87
2023/05/16 06:05:57;;;;;;;14.77;7.03;;;8.40;99.90;;;;;;5061128;28;20028;-88
2023/05/16 06:08:23;;;;;;;890.20;495.95;;;8.50;99.90;;;;;;5066809;28;20379;-86
2023/05/16 06:10:48;;;;;;;206.48;83.85;;;8.60;99.90;;;;;;5072895;28;20020;-87
2023/05/16 06:13:14;;;;;;;25.40;12.40;;;8.60;99.90;;;;;;5062619;28;20082;-89
2023/05/16 06:15:40;;;;;;;13.82;4.55;;;8.80;99.90;;;;;;5063084;28;20036;-87
2023/05/16 06:18:05;;;;;;;6.13;3.25;;;8.90;99.90;;;;;;5053417;28;20024;-89
2023/05/16 06:20:31;;;;;;;5.03;2.60;;;9.00;99.90;;;;;;5055608;28;20039;-89
2023/05/16 06:22:57;;;;;;;6.93;2.75;;;9.10;99.90;;;;;;5050757;28;21567;-89
2023/05/16 06:25:22;;;;;;;9.32;3.42;;;9.20;99.90;;;;;;5045434;28;20032;-87
2023/05/16 06:27:48;;;;;;;37.72;16.15;;;9.20;99.90;;;;;;5063788;28;20515;-89
2023/05/16 06:30:14;;;;;;;20.92;7.18;;;9.40;99.90;;;;;;5059322;28;20060;-88
2023/05/16 06:32:40;;;;;;;9.48;2.97;;;9.50;99.90;;;;;;5089867;28;20576;-88
2023/05/16 06:35:07;;;;;;;10.25;2.80;;;9.60;99.90;;;;;;5053996;28;20044;-87
2023/05/16 06:37:33;;;;;;;10.00;3.00;;;9.70;99.90;;;;;;5069268;28;20139;-86
2023/05/16 06:39:59;;;;;;;10.27;3.13;;;9.80;99.90;;;;;;5084338;28;20119;-86
2023/05/16 06:42:24;;;;;;;95.28;42.42;;;9.90;99.90;;;;;;5053620;28;20031;-86
2023/05/16 06:44:50;;;;;;;8.88;3.25;;;10.00;99.90;;;;;;5089580;28;20070;-83
2023/05/16 06:47:16;;;;;;;12.60;2.50;;;10.10;99.90;;;;;;5059437;28;20047;-86
2023/05/16 06:49:43;;;;;;;9.00;2.28;;;10.20;99.90;;;;;;5075148;28;20063;-87
2023/05/16 06:52:08;;;;;;;23.92;5.82;;;10.30;99.90;;;;;;5056414;28;20028;-87
2023/05/16 06:54:34;;;;;;;10.13;2.03;;;10.50;99.90;;;;;;5070380;28;20507;-86
2023/05/16 06:56:59;;;;;;;8.90;1.80;;;10.60;99.90;;;;;;5056345;28;20028;-89
2023/05/16 06:59:25;;;;;;;8.95;1.98;;;10.60;99.90;;;;;;5055247;28;20024;-86
2023/05/16 07:01:51;;;;;;;14.18;2.63;;;10.60;99.90;;;;;;5051181;28;20645;-86
2023/05/16 07:04:16;;;;;;;11.50;2.50;;;10.80;99.90;;;;;;5077350;28;20157;-85
2023/05/16 07:06:42;;;;;;;9.85;3.28;;;10.90;99.90;;;;;;5061456;28;20033;-86
2023/05/16 07:09:08;;;;;;;10.18;2.67;;;11.00;99.90;;;;;;5077012;28;20718;-87
2023/05/16 07:11:33;;;;;;;13.20;3.00;;;11.20;99.90;;;;;;5059599;28;20039;-87
2023/05/16 07:13:59;;;;;;;10.77;3.50;;;11.30;99.90;;;;;;5057428;28;20029;-84
2023/05/16 07:16:27;;;;;;;16.17;5.22;;;11.40;99.90;;;;;;5077181;28;20103;-85
2023/05/16 07:18:53;;;;;;;17.95;5.43;;;11.50;99.90;;;;;;5063915;28;20074;-85
2023/05/16 07:21:18;;;;;;;19.45;5.72;;;11.70;99.90;;;;;;5076861;28;20040;-86
2023/05/16 07:23:44;;;;;;;17.65;5.50;;;11.80;99.90;;;;;;5065455;28;20028;-86
2023/05/16 07:26:10;;;;;;;18.80;5.00;;;11.80;99.90;;;;;;5061850;28;20055;-87
2023/05/16 07:28:35;;;;;;;9.35;4.22;;;11.90;99.90;;;;;;5072181;28;20040;-86
2023/05/16 07:31:01;;;;;;;9.70;2.50;;;12.10;99.90;;;;;;5080324;28;20093;-88
2023/05/16 07:33:27;;;;;;;8.05;2.58;;;12.30;99.90;;;;;;5094965;28;20243;-88
2023/05/16 07:35:53;;;;;;;7.82;2.17;;;12.60;99.90;;;;;;5090964;28;20031;-86
2023/05/16 07:38:20;;;;;;;10.25;2.00;;;12.70;99.90;;;;;;5061933;28;20037;-87
2023/05/16 07:40:46;;;;;;;9.68;2.72;;;13.00;99.90;;;;;;5084088;28;20032;-87
2023/05/16 07:43:11;;;;;;;10.20;2.25;;;13.80;99.90;;;;;;5082194;28;20118;-87
2023/05/16 07:45:37;;;;;;;10.73;2.75;;;15.40;96.00;;;;;;5069608;28;20141;-87
2023/05/16 07:48:03;;;;;;;8.38;1.95;;;17.50;88.90;;;;;;5073376;28;20095;-87
2023/05/16 07:50:28;;;;;;;7.45;2.30;;;20.60;58.30;;;;;;5063956;28;20488;-84
2023/05/16 07:52:54;;;;;;;5.35;2.08;;;23.30;45.90;;;;;;5080027;28;20028;-85
2023/05/16 07:55:21;;;;;;;9.73;2.03;;;25.80;40.80;;;;;;5076130;28;20115;-83
2023/05/16 07:57:47;;;;;;;7.80;2.70;;;27.80;36.90;;;;;;5076872;28;20180;-87
2023/05/16 08:00:13;;;;;;;9.30;2.67;;;29.40;34.00;;;;;;5044366;28;20025;-85
2023/05/16 08:02:39;;;;;;;8.25;2.95;;;30.60;32.00;;;;;;5065090;28;20036;-86
2023/05/16 08:05:06;;;;;;;7.47;2.70;;;30.90;30.20;;;;;;5048827;28;20089;-86
2023/05/16 08:07:32;;;;;;;9.93;2.80;;;31.80;29.40;;;;;;5071507;28;20032;-85
2023/05/16 08:09:57;;;;;;;7.05;2.70;;;32.50;28.50;;;;;;5079110;28;20035;-85
2023/05/16 08:12:23;;;;;;;8.35;2.67;;;32.60;27.30;;;;;;5071088;28;20081;-84
2023/05/16 08:14:49;;;;;;;7.47;1.90;;;33.20;27.80;;;;;;5072777;28;20032;-84
2023/05/16 08:17:15;;;;;;;6.28;1.90;;;33.40;26.80;;;;;;5073702;28;20036;-84
2023/05/16 08:19:40;;;;;;;7.90;1.80;;;33.50;27.10;;;;;;5064711;28;20028;-86
2023/05/16 08:22:07;;;;;;;6.10;1.73;;;33.20;27.40;;;;;;5071068;28;20063;-85
2023/05/16 08:24:33;;;;;;;6.90;2.00;;;33.90;28.20;;;;;;5050662;28;20403;-83
2023/05/16 08:26:59;;;;;;;7.10;1.88;;;33.90;26.70;;;;;;5048408;28;20033;-84
2023/05/16 08:29:25;;;;;;;3.58;1.40;;;34.40;25.80;;;;;;5069591;28;20083;-84
2023/05/16 08:31:51;;;;;;;6.07;1.58;;;34.50;25.10;;;;;;4702566;28;9999769;-84
2023/05/16 08:34:16;;;;;;;3.95;1.58;;;34.70;26.00;;;;;;5068469;28;20032;-85
2023/05/16 08:36:42;;;;;;;5.22;1.55;;;34.10;26.10;;;;;;5065531;28;20111;-85
2023/05/16 08:39:10;;;;;;;7.38;1.77;;;34.10;26.40;;;;;;5071549;28;20033;-85
2023/05/16 08:41:36;;;;;;;4.93;1.85;;;34.50;27.40;;;;;;5063572;28;20438;-83
2023/05/16 08:44:03;;;;;;;8.43;1.73;;;34.90;27.30;;;;;;5074805;28;20579;-84
2023/05/16 08:46:29;;;;;;;7.47;1.65;;;35.30;25.40;;;;;;5076148;28;20389;-84
2023/05/16 08:48:58;;;;;;;4.20;1.08;;;33.70;26.00;;;;;;5077635;28;20056;-85
2023/05/16 08:51:25;;;;;;;4.28;1.27;;;34.40;26.30;;;;;;5064090;28;20067;-84
2023/05/16 08:54:02;;;;;;;5.65;1.50;;;34.10;25.70;;;;;;5083675;28;20570;-86
2023/05/16 08:56:28;;;;;;;5.75;1.33;;;34.60;26.20;;;;;;5075384;28;20099;-85
2023/05/16 08:58:56;;;;;;;6.78;1.38;;;35.70;25.00;;;;;;5103283;28;20031;-85
2023/05/16 09:01:22;;;;;;;6.88;1.75;;;34.50;26.10;;;;;;5090972;28;20020;-84
2023/05/16 09:03:49;;;;;;;9.20;1.67;;;35.40;25.10;;;;;;5085165;28;20031;-86
2023/05/16 09:06:16;;;;;;;6.90;1.52;;;36.00;25.70;;;;;;5068621;28;20028;-86
2023/05/16 09:08:41;;;;;;;5.95;1.20;;;36.90;26.20;;;;;;5069005;28;20511;-87
2023/05/16 09:11:08;;;;;;;4.78;1.15;;;37.10;24.80;;;;;;5072384;28;20024;-84
2023/05/16 09:13:43;;;;;;;17.94;2.12;;;37.40;24.20;;;;;;5086475;28;10000874;-85
2023/05/16 09:16:18;;;;;;;8.13;1.42;;;36.90;24.80;;;;;;5078765;28;20250;-86
2023/05/16 09:18:45;;;;;;;5.30;1.10;;;36.90;24.30;;;;;;5068695;28;20027;-84
2023/05/16 09:21:12;;;;;;;4.65;1.15;;;37.50;25.10;;;;;;5072452;28;20082;-84
2023/05/16 09:23:38;;;;;;;5.60;1.23;;;37.60;24.10;;;;;;5071675;28;20776;-86
2023/05/16 09:26:09;;;;;;;5.80;1.38;;;37.50;23.70;;;;;;5074213;28;20028;-86
2023/05/16 09:28:38;;;;;;;6.18;1.20;;;36.90;24.40;;;;;;5068281;28;20449;-85
2023/05/16 09:31:03;;;;;;;6.35;1.52;;;36.50;25.20;;;;;;5050181;28;20079;-86
2023/05/16 09:33:29;;;;;;;5.80;1.13;;;36.10;23.40;;;;;;5071887;28;20075;-85
2023/05/16 09:35:59;;;;;;;5.97;0.90;;;37.00;25.50;;;;;;5072611;28;20032;-85
2023/05/16 09:38:26;;;;;;;;;;;37.50;25.00;;;;;;5075287;28;20028;-88
2023/05/16 09:40:53;;;;;;;5.70;1.05;;;34.90;22.70;;;;;;5083245;28;19913;-86
2023/05/16 09:43:22;;;;;;;6.90;1.10;;;35.60;25.20;;;;;;5070744;28;20024;-84
2023/05/16 09:45:48;;;;;;;6.22;1.35;;;36.10;24.60;;;;;;5087647;28;20051;-87
2023/05/16 09:48:15;;;;;;;6.68;1.40;;;36.60;23.90;;;;;;5086112;28;20403;-87
2023/05/16 09:50:55;;;;;;;10.32;1.35;;;36.20;24.50;;;;;;5082766;28;20024;-87
2023/05/16 09:53:27;;;;;;;6.63;1.33;;;35.90;23.60;;;;;;5073344;28;20417;-86
2023/05/16 09:56:09;;;;;;;6.70;1.42;;;36.40;23.70;;;;;;5079104;28;20032;-86
2023/05/16 09:58:37;;;;;;;18.23;2.22;;;35.90;24.90;;;;;;5080266;28;20036;-88
2023/05/16 10:01:03;;;;;;;8.80;1.05;;;34.90;25.40;;;;;;5075936;28;20032;-86
2023/05/16 10:03:30;;;;;;;4.75;1.25;;;35.40;24.50;;;;;;5056404;28;20491;-86
2023/05/16 10:05:56;;;;;;;6.53;1.10;;;35.70;27.10;;;;;;5077674;28;20073;-88
2023/05/16 10:08:26;;;;;;;6.22;1.02;;;35.70;27.40;;;;;;5080059;28;20478;-87
2023/05/16 10:10:55;;;;;;;4.53;1.10;;;36.80;24.10;;;;;;5076383;28;20024;-87
2023/05/16 10:13:23;;;;;;;5.15;1.00;;;37.00;23.50;;;;;;5071405;28;20036;-89
2023/05/16 10:15:49;;;;;;;5.30;1.00;;;35.20;23.60;;;;;;5062177;28;20024;-89
2023/05/16 10:18:17;;;;;;;4.20;1.10;;;33.40;26.60;;;;;;5074240;28;20036;-87
2023/05/16 10:20:47;;;;;;;4.93;1.25;;;33.30;26.00;;;;;;5102578;28;20046;-85
2023/05/16 10:23:17;;;;;;;8.38;0.95;;;34.20;27.40;;;;;;5085176;28;20029;-89
2023/05/16 10:25:44;;;;;;;7.32;1.25;;;36.00;24.00;;;;;;5110424;28;20062;-87
2023/05/16 10:28:12;;;;;;;6.05;0.93;;;36.10;25.20;;;;;;5081437;28;20043;-89
2023/05/16 10:30:42;;;;;;;12.15;1.88;;;34.40;24.70;;;;;;5110283;28;20023;-90
2023/05/16 10:33:10;;;;;;;;;;;32.70;24.30;;;;;;5110415;28;20032;-89
2023/05/16 10:35:36;;;;;;;6.13;1.10;;;31.60;27.80;;;;;;5070610;28;19908;-85
2023/05/16 10:38:03;;;;;;;5.18;1.05;;;31.70;27.60;;;;;;5083972;28;20047;-89
2023/05/16 10:40:30;;;;;;;6.88;1.30;;;33.40;25.50;;;;;;5108017;28;20032;-87
2023/05/16 10:43:00;;;;;;;3.67;0.93;;;34.40;23.60;;;;;;5102221;28;20084;-86
2023/05/16 10:45:26;;;;;;;6.78;0.95;;;35.10;23.50;;;;;;4727458;28;10000076;-87
2023/05/16 10:47:58;;;;;;;4.28;0.80;;;35.60;24.80;;;;;;5072084;28;20040;-87
2023/05/16 10:50:33;;;;;;;3.42;0.90;;;34.80;22.70;;;;;;5067932;28;20124;-87
2023/05/16 10:53:17;;;;;;;3.70;1.15;;;35.80;23.50;;;;;;5097946;28;20464;-85
2023/05/16 10:56:00;;;;;;;7.47;1.08;;;34.80;24.30;;;;;;5076842;28;20164;-86
2023/05/16 10:58:35;;;;;;;3.95;1.08;;;36.30;23.60;;;;;;5068749;28;20033;-85
2023/05/16 11:01:21;;;;;;;5.75;0.95;;;37.20;24.80;;;;;;5078506;28;20494;-85
2023/05/16 11:03:55;;;;;;;9.82;1.17;;;37.00;22.70;;;;;;5087996;28;20032;-87
2023/05/16 11:06:22;;;;;;;8.52;1.10;;;34.90;23.70;;;;;;5088413;28;20628;-86
2023/05/16 11:09:21;;;;;;;2.63;0.70;;;33.00;27.10;;;;;;5083764;28;20065;-84
2023/05/16 11:12:02;;;;;;;3.35;0.80;;;32.80;26.30;;;;;;5050999;28;20387;-88
2023/05/16 11:14:36;;;;;;;6.05;1.67;;;33.60;25.40;;;;;;5066973;28;20104;-87
2023/05/16 11:17:13;;;;;;;5.55;0.95;;;35.20;23.90;;;;;;5086404;28;20020;-86
2023/05/16 11:19:46;;;;;;;4.32;1.10;;;33.80;22.60;;;;;;5076236;28;20036;-88
2023/05/16 11:22:17;;;;;;;3.25;0.70;;;31.60;22.40;;;;;;5069268;28;20480;-86
2023/05/16 11:24:53;;;;;;;2.10;0.65;;;29.10;25.20;;;;;;5076843;28;20445;-84
2023/05/16 11:27:27;;;;;;;3.83;0.85;;;28.00;32.50;;;;;;5079394;28;20051;-85
2023/05/16 11:30:00;;;;;;;5.93;0.70;;;27.60;32.30;;;;;;5073489;28;20033;-87
2023/05/16 11:32:26;;;;;;;8.10;0.98;;;27.20;32.70;;;;;;5075765;28;20044;-87
2023/05/16 11:34:52;;;;;;;5.85;1.00;;;27.10;31.60;;;;;;5074611;28;20039;-85
2023/05/16 11:37:19;;;;;;;3.75;0.65;;;26.90;29.60;;;;;;5068931;28;20032;-85
2023/05/16 11:39:46;;;;;;;4.60;0.98;;;26.70;31.70;;;;;;5072295;28;20027;-85
2023/05/16 11:42:12;;;;;;;3.92;0.70;;;26.00;28.70;;;;;;5107500;28;20029;-84
2023/05/16 11:44:39;;;;;;;3.83;0.90;;;25.60;31.40;;;;;;5107596;28;20408;-84
2023/05/16 11:47:06;;;;;;;5.85;0.90;;;25.30;34.50;;;;;;5107808;28;20054;-86
2023/05/16 11:49:32;;;;;;;2.35;0.80;;;25.00;34.80;;;;;;5071407;28;20029;-86
2023/05/16 11:52:09;;;;;;;5.60;1.05;;;25.00;39.70;;;;;;5081645;28;20035;-85
2023/05/16 11:54:40;;;;;;;3.05;0.80;;;25.10;36.00;;;;;;5081150;28;20032;-85
2023/05/16 11:57:08;;;;;;;3.38;0.65;;;25.00;31.20;;;;;;5088512;28;20063;-82
2023/05/16 12:00:06;;;;;;;4.25;0.70;;;24.70;31.00;;;;;;5086692;28;20031;-87
2023/05/16 12:02:35;;;;;;;4.25;0.82;;;25.10;35.40;;;;;;5074518;28;20407;-87
2023/05/16 12:05:26;;;;;;;6.22;0.95;;;25.30;29.60;;;;;;5081389;28;20020;-85
2023/05/16 12:07:53;;;;;;;;;;;25.70;34.10;;;;;;5048570;28;20048;-84
2023/05/16 12:10:19;;;;;;;4.93;0.82;;;26.30;33.40;;;;;;5076877;28;19943;-83
2023/05/16 12:12:47;;;;;;;5.72;0.90;;;27.00;33.80;;;;;;5077186;28;20484;-85
2023/05/16 12:15:14;;;;;;;3.17;0.77;;;26.10;32.00;;;;;;5102695;28;20036;-85
2023/05/16 12:17:40;;;;;;;7.22;1.00;;;25.30;33.30;;;;;;5086738;28;20507;-84
2023/05/16 12:20:13;;;;;;;10.88;1.00;;;24.10;31.90;;;;;;5074246;28;20309;-85
2023/05/16 12:23:04;;;;;;;5.75;0.95;;;23.80;35.60;;;;;;5052568;28;20105;-85
2023/05/16 12:25:30;;;;;;;;;;;24.10;38.00;;;;;;5072760;22;20436;-83
2023/05/16 12:28:03;;;;;;;2.95;0.85;;;24.40;33.10;;;;;;5077817;28;19920;-85
2023/05/16 12:31:16;;;;;;;3.95;0.98;;;24.40;31.40;;;;;;5065762;28;20021;-81
2023/05/16 12:33:44;;;;;;;3.60;1.00;;;24.70;28.80;;;;;;5047572;28;20058;-85
2023/05/16 12:36:14;;;;;;;4.10;0.90;;;24.90;33.80;;;;;;5054566;28;20535;-83
2023/05/16 12:38:40;;;;;;;2.83;0.80;;;24.70;35.50;;;;;;5062369;28;20037;-84
2023/05/16 12:41:06;;;;;;;3.78;0.93;;;25.20;28.80;;;;;;5067325;28;20020;-83
2023/05/16 12:43:32;;;;;;;4.45;0.90;;;25.00;28.50;;;;;;5048714;28;20434;-82
2023/05/16 12:45:57;;;;;;;6.78;0.82;;;25.00;30.90;;;;;;5089095;27;20588;-84
2023/05/16 12:48:34;;;;;;;6.95;1.25;;;23.40;33.50;;;;;;5039219;22;20053;-84
2023/05/16 12:51:17;;;;;;;7.95;0.88;;;22.50;34.00;;;;;;4999736;28;20044;-83
2023/05/16 12:53:47;;;;;;;3.85;0.88;;;22.30;35.20;;;;;;5031296;28;20060;-84
2023/05/16 12:56:14;;;;;;;6.07;1.20;;;22.60;39.50;;;;;;5032295;28;20032;-83